sensor_id;sensor_type;location;lat;lon;timestamp;pressure;altitude;pressure_sealevel;temperature
19644;BMP180;9970;-36.854;174.870;2022-10-16T00:00:19;100926.00;;;19.40
19644;BMP180;9970;-36.854;174.870;2022-10-16T00:02:52;100924.00;;;19.40
19644;BMP180;9970;-36.854;174.870;2022-10-16T00:05:25;100920.00;;;19.40
19644;BMP180;9970;-36.854;174.870;2022-10-16T00:08:02;100917.00;;;19.40
19644;BMP180;9970;-36.854;174.870;2022-10-16T00:10:35;100910.00;;;19.40
19644;BMP180;9970;-36.854;174.870;2022-10-16T00:13:08;100908.00;;;19.40
19644;BMP180;9970;-36.854;174.870;2022-10-16T00:15:41;100924.00;;;19.40
19644;BMP180;9970;-36.854;174.870;2022-10-16T00:18:15;100917.00;;;19.50
19644;BMP180;9970;-36.854;174.870;2022-10-16T00:20:48;100910.00;;;19.40
19644;BMP180;9970;-36.854;174.870;2022-10-16T00:23:21;100914.00;;;19.40
19644;BMP180;9970;-36.854;174.870;2022-10-16T00:25:58;100912.00;;;19.40
19644;BMP180;9970;-36.854;174.870;2022-10-16T00:28:31;100912.00;;;19.40
19644;BMP180;9970;-36.854;174.870;2022-10-16T00:31:06;100916.00;;;19.40
19644;BMP180;9970;-36.854;174.870;2022-10-16T00:33:40;100905.00;;;19.40
19644;BMP180;9970;-36.854;174.870;2022-10-16T00:36:15;100899.00;;;19.40
19644;BMP180;9970;-36.854;174.870;2022-10-16T00:38:49;100899.00;;;19.40
19644;BMP180;9970;-36.854;174.870;2022-10-16T00:41:25;100905.00;;;19.50
19644;BMP180;9970;-36.854;174.870;2022-10-16T00:43:59;100908.00;;;19.50
19644;BMP180;9970;-36.854;174.870;2022-10-16T00:46:42;100902.00;;;19.50
19644;BMP180;9970;-36.854;174.870;2022-10-16T00:49:16;100909.00;;;19.40
19644;BMP180;9970;-36.854;174.870;2022-10-16T00:51:50;100896.00;;;19.40
19644;BMP180;9970;-36.854;174.870;2022-10-16T00:54:26;100894.00;;;19.40
19644;BMP180;9970;-36.854;174.870;2022-10-16T00:57:00;100901.00;;;19.40
19644;BMP180;9970;-36.854;174.870;2022-10-16T00:59:41;100906.00;;;19.50
19644;BMP180;9970;-36.854;174.870;2022-10-16T01:02:12;100902.00;;;19.40
19644;BMP180;9970;-36.854;174.870;2022-10-16T01:04:48;100902.00;;;19.40
19644;BMP180;9970;-36.854;174.870;2022-10-16T01:13:09;100902.00;;;19.40
19644;BMP180;9970;-36.854;174.870;2022-10-16T01:15:55;100904.00;;;19.40
19644;BMP180;9970;-36.854;174.870;2022-10-16T01:21:24;100902.00;;;19.40
19644;BMP180;9970;-36.854;174.870;2022-10-16T01:30:01;100913.00;;;19.30
19644;BMP180;9970;-36.854;174.870;2022-10-16T01:32:37;100907.00;;;19.30
19644;BMP180;9970;-36.854;174.870;2022-10-16T01:35:13;100909.00;;;19.30
19644;BMP180;9970;-36.854;174.870;2022-10-16T01:40:24;100903.00;;;19.20
19644;BMP180;9970;-36.854;174.870;2022-10-16T01:43:08;100897.00;;;19.20
19644;BMP180;9970;-36.854;174.870;2022-10-16T01:45:41;100900.00;;;19.20
19644;BMP180;9970;-36.854;174.870;2022-10-16T01:48:17;100899.00;;;19.10
19644;BMP180;9970;-36.854;174.870;2022-10-16T01:50:59;100904.00;;;19.10
19644;BMP180;9970;-36.854;174.870;2022-10-16T01:53:28;100887.00;;;19.10
19644;BMP180;9970;-36.854;174.870;2022-10-16T01:56:03;100895.00;;;19.10
19644;BMP180;9970;-36.854;174.870;2022-10-16T01:58:40;100881.00;;;19.00
19644;BMP180;9970;-36.854;174.870;2022-10-16T02:01:13;100876.00;;;19.00
19644;BMP180;9970;-36.854;174.870;2022-10-16T02:03:48;100882.00;;;19.00
19644;BMP180;9970;-36.854;174.870;2022-10-16T02:06:22;100878.00;;;18.90
19644;BMP180;9970;-36.854;174.870;2022-10-16T02:08:56;100873.00;;;18.90
19644;BMP180;9970;-36.854;174.870;2022-10-16T02:11:29;100884.00;;;18.90
19644;BMP180;9970;-36.854;174.870;2022-10-16T02:14:06;100874.00;;;18.90
19644;BMP180;9970;-36.854;174.870;2022-10-16T02:16:40;100874.00;;;18.90
19644;BMP180;9970;-36.854;174.870;2022-10-16T02:19:15;100881.00;;;18.90
19644;BMP180;9970;-36.854;174.870;2022-10-16T02:21:59;100874.00;;;18.80
19644;BMP180;9970;-36.854;174.870;2022-10-16T02:25:03;100873.00;;;18.80
19644;BMP180;9970;-36.854;174.870;2022-10-16T02:27:49;100867.00;;;18.80
19644;BMP180;9970;-36.854;174.870;2022-10-16T02:33:05;100871.00;;;18.70
19644;BMP180;9970;-36.854;174.870;2022-10-16T02:35:43;100855.00;;;18.70
19644;BMP180;9970;-36.854;174.870;2022-10-16T02:38:17;100864.00;;;18.80
19644;BMP180;9970;-36.854;174.870;2022-10-16T02:40:51;100861.00;;;18.80
19644;BMP180;9970;-36.854;174.870;2022-10-16T02:43:25;100862.00;;;18.80
19644;BMP180;9970;-36.854;174.870;2022-10-16T02:45:59;100867.00;;;18.90
19644;BMP180;9970;-36.854;174.870;2022-10-16T02:48:32;100866.00;;;18.90
19644;BMP180;9970;-36.854;174.870;2022-10-16T02:51:06;100861.00;;;18.90
19644;BMP180;9970;-36.854;174.870;2022-10-16T02:53:40;100855.00;;;18.90
19644;BMP180;9970;-36.854;174.870;2022-10-16T02:56:13;100853.00;;;18.80
19644;BMP180;9970;-36.854;174.870;2022-10-16T02:58:47;100848.00;;;18.80
19644;BMP180;9970;-36.854;174.870;2022-10-16T03:01:21;100858.00;;;18.80
19644;BMP180;9970;-36.854;174.870;2022-10-16T03:03:54;100848.00;;;18.80
19644;BMP180;9970;-36.854;174.870;2022-10-16T03:06:27;100853.00;;;18.80
19644;BMP180;9970;-36.854;174.870;2022-10-16T03:09:00;100845.00;;;18.80
19644;BMP180;9970;-36.854;174.870;2022-10-16T03:11:33;100838.00;;;18.80
19644;BMP180;9970;-36.854;174.870;2022-10-16T03:14:06;100843.00;;;18.70
19644;BMP180;9970;-36.854;174.870;2022-10-16T03:16:39;100849.00;;;18.70
19644;BMP180;9970;-36.854;174.870;2022-10-16T03:19:12;100843.00;;;18.70
19644;BMP180;9970;-36.854;174.870;2022-10-16T03:21:45;100846.00;;;18.70
19644;BMP180;9970;-36.854;174.870;2022-10-16T03:24:18;100847.00;;;18.70
19644;BMP180;9970;-36.854;174.870;2022-10-16T03:26:51;100846.00;;;18.60
19644;BMP180;9970;-36.854;174.870;2022-10-16T03:29:24;100862.00;;;18.60
19644;BMP180;9970;-36.854;174.870;2022-10-16T03:31:58;100844.00;;;18.50
19644;BMP180;9970;-36.854;174.870;2022-10-16T03:34:31;100844.00;;;18.50
19644;BMP180;9970;-36.854;174.870;2022-10-16T03:37:04;100844.00;;;18.50
19644;BMP180;9970;-36.854;174.870;2022-10-16T03:39:37;100847.00;;;18.40
19644;BMP180;9970;-36.854;174.870;2022-10-16T03:42:14;100845.00;;;18.40
19644;BMP180;9970;-36.854;174.870;2022-10-16T03:44:47;100848.00;;;18.30
19644;BMP180;9970;-36.854;174.870;2022-10-16T03:47:20;100855.00;;;18.20
19644;BMP180;9970;-36.854;174.870;2022-10-16T03:49:54;100846.00;;;18.20
19644;BMP180;9970;-36.854;174.870;2022-10-16T03:52:28;100854.00;;;18.20
19644;BMP180;9970;-36.854;174.870;2022-10-16T03:55:01;100846.00;;;18.20
19644;BMP180;9970;-36.854;174.870;2022-10-16T03:57:34;100848.00;;;18.20
19644;BMP180;9970;-36.854;174.870;2022-10-16T04:00:08;100846.00;;;18.20
19644;BMP180;9970;-36.854;174.870;2022-10-16T04:02:42;100857.00;;;18.20
19644;BMP180;9970;-36.854;174.870;2022-10-16T04:05:14;100851.00;;;18.10
19644;BMP180;9970;-36.854;174.870;2022-10-16T04:07:48;100848.00;;;18.10
19644;BMP180;9970;-36.854;174.870;2022-10-16T04:10:21;100845.00;;;18.10
19644;BMP180;9970;-36.854;174.870;2022-10-16T04:12:54;100856.00;;;18.00
19644;BMP180;9970;-36.854;174.870;2022-10-16T04:15:27;100874.00;;;18.00
19644;BMP180;9970;-36.854;174.870;2022-10-16T04:18:00;100862.00;;;18.10
19644;BMP180;9970;-36.854;174.870;2022-10-16T04:20:33;100867.00;;;18.00
19644;BMP180;9970;-36.854;174.870;2022-10-16T04:23:07;100859.00;;;18.00
19644;BMP180;9970;-36.854;174.870;2022-10-16T04:25:40;100863.00;;;18.00
19644;BMP180;9970;-36.854;174.870;2022-10-16T04:28:13;100868.00;;;18.00
19644;BMP180;9970;-36.854;174.870;2022-10-16T04:30:51;100860.00;;;18.00
19644;BMP180;9970;-36.854;174.870;2022-10-16T04:33:24;100870.00;;;17.90
19644;BMP180;9970;-36.854;174.870;2022-10-16T04:36:04;100868.00;;;17.90
19644;BMP180;9970;-36.854;174.870;2022-10-16T04:38:37;100881.00;;;17.90
19644;BMP180;9970;-36.854;174.870;2022-10-16T04:41:10;100884.00;;;17.90
19644;BMP180;9970;-36.854;174.870;2022-10-16T04:43:43;100875.00;;;17.80
19644;BMP180;9970;-36.854;174.870;2022-10-16T04:46:16;100882.00;;;17.80
19644;BMP180;9970;-36.854;174.870;2022-10-16T04:48:49;100880.00;;;17.80
19644;BMP180;9970;-36.854;174.870;2022-10-16T04:51:22;100895.00;;;17.80
19644;BMP180;9970;-36.854;174.870;2022-10-16T04:53:55;100889.00;;;17.80
19644;BMP180;9970;-36.854;174.870;2022-10-16T04:56:28;100880.00;;;17.70
19644;BMP180;9970;-36.854;174.870;2022-10-16T04:59:01;100887.00;;;17.70
19644;BMP180;9970;-36.854;174.870;2022-10-16T05:01:35;100886.00;;;17.70
19644;BMP180;9970;-36.854;174.870;2022-10-16T05:04:08;100894.00;;;17.60
19644;BMP180;9970;-36.854;174.870;2022-10-16T05:06:44;100883.00;;;17.60
19644;BMP180;9970;-36.854;174.870;2022-10-16T05:09:24;100901.00;;;17.50
19644;BMP180;9970;-36.854;174.870;2022-10-16T05:11:58;100895.00;;;17.50
19644;BMP180;9970;-36.854;174.870;2022-10-16T05:14:36;100908.00;;;17.40
19644;BMP180;9970;-36.854;174.870;2022-10-16T05:17:12;100907.00;;;17.40
19644;BMP180;9970;-36.854;174.870;2022-10-16T05:19:45;100912.00;;;17.40
19644;BMP180;9970;-36.854;174.870;2022-10-16T05:22:19;100911.00;;;17.40
19644;BMP180;9970;-36.854;174.870;2022-10-16T05:24:52;100907.00;;;17.30
19644;BMP180;9970;-36.854;174.870;2022-10-16T05:27:25;100917.00;;;17.30
19644;BMP180;9970;-36.854;174.870;2022-10-16T05:29:58;100911.00;;;17.30
19644;BMP180;9970;-36.854;174.870;2022-10-16T05:32:33;100912.00;;;17.20
19644;BMP180;9970;-36.854;174.870;2022-10-16T05:35:06;100915.00;;;17.20
19644;BMP180;9970;-36.854;174.870;2022-10-16T05:37:40;100916.00;;;17.20
19644;BMP180;9970;-36.854;174.870;2022-10-16T05:40:14;100921.00;;;17.10
19644;BMP180;9970;-36.854;174.870;2022-10-16T05:42:47;100931.00;;;17.10
19644;BMP180;9970;-36.854;174.870;2022-10-16T05:45:22;100922.00;;;17.10
19644;BMP180;9970;-36.854;174.870;2022-10-16T05:48:02;100912.00;;;17.00
19644;BMP180;9970;-36.854;174.870;2022-10-16T05:50:38;100925.00;;;17.00
19644;BMP180;9970;-36.854;174.870;2022-10-16T05:53:10;100927.00;;;17.00
19644;BMP180;9970;-36.854;174.870;2022-10-16T05:55:51;100923.00;;;16.90
19644;BMP180;9970;-36.854;174.870;2022-10-16T05:58:33;100923.00;;;16.90
19644;BMP180;9970;-36.854;174.870;2022-10-16T06:01:12;100922.00;;;16.90
19644;BMP180;9970;-36.854;174.870;2022-10-16T06:03:41;100924.00;;;16.90
19644;BMP180;9970;-36.854;174.870;2022-10-16T06:06:16;100926.00;;;16.80
19644;BMP180;9970;-36.854;174.870;2022-10-16T06:09:13;100928.00;;;16.80
19644;BMP180;9970;-36.854;174.870;2022-10-16T06:11:54;100924.00;;;16.70
19644;BMP180;9970;-36.854;174.870;2022-10-16T06:14:27;100918.00;;;16.70
19644;BMP180;9970;-36.854;174.870;2022-10-16T06:17:13;100920.00;;;16.70
19644;BMP180;9970;-36.854;174.870;2022-10-16T06:19:48;100926.00;;;16.70
19644;BMP180;9970;-36.854;174.870;2022-10-16T06:22:41;100929.00;;;16.70
19644;BMP180;9970;-36.854;174.870;2022-10-16T06:25:19;100922.00;;;16.70
19644;BMP180;9970;-36.854;174.870;2022-10-16T06:28:00;100918.00;;;16.60
19644;BMP180;9970;-36.854;174.870;2022-10-16T06:34:10;100938.00;;;16.60
19644;BMP180;9970;-36.854;174.870;2022-10-16T06:36:55;100929.00;;;16.50
19644;BMP180;9970;-36.854;174.870;2022-10-16T06:39:28;100928.00;;;16.50
19644;BMP180;9970;-36.854;174.870;2022-10-16T06:42:01;100932.00;;;16.50
19644;BMP180;9970;-36.854;174.870;2022-10-16T06:44:41;100940.00;;;16.50
19644;BMP180;9970;-36.854;174.870;2022-10-16T06:47:12;100943.00;;;16.40
19644;BMP180;9970;-36.854;174.870;2022-10-16T06:49:45;100937.00;;;16.40
19644;BMP180;9970;-36.854;174.870;2022-10-16T06:52:19;100947.00;;;16.40
19644;BMP180;9970;-36.854;174.870;2022-10-16T06:54:53;100948.00;;;16.40
19644;BMP180;9970;-36.854;174.870;2022-10-16T06:57:26;100942.00;;;16.30
19644;BMP180;9970;-36.854;174.870;2022-10-16T06:59:59;100945.00;;;16.30
19644;BMP180;9970;-36.854;174.870;2022-10-16T07:02:54;100960.00;;;16.30
19644;BMP180;9970;-36.854;174.870;2022-10-16T07:05:47;100966.00;;;16.30
19644;BMP180;9970;-36.854;174.870;2022-10-16T07:08:43;100966.00;;;16.20
19644;BMP180;9970;-36.854;174.870;2022-10-16T07:11:17;100965.00;;;16.20
19644;BMP180;9970;-36.854;174.870;2022-10-16T07:13:51;100970.00;;;16.20
19644;BMP180;9970;-36.854;174.870;2022-10-16T07:16:27;100972.00;;;16.20
19644;BMP180;9970;-36.854;174.870;2022-10-16T07:19:03;100986.00;;;16.20
19644;BMP180;9970;-36.854;174.870;2022-10-16T07:21:35;100984.00;;;16.20
19644;BMP180;9970;-36.854;174.870;2022-10-16T07:24:13;100995.00;;;16.10
19644;BMP180;9970;-36.854;174.870;2022-10-16T07:26:46;100991.00;;;16.10
19644;BMP180;9970;-36.854;174.870;2022-10-16T07:29:20;100989.00;;;16.10
19644;BMP180;9970;-36.854;174.870;2022-10-16T07:31:53;100994.00;;;16.10
19644;BMP180;9970;-36.854;174.870;2022-10-16T07:34:26;100993.00;;;16.10
19644;BMP180;9970;-36.854;174.870;2022-10-16T07:36:59;101008.00;;;16.10
19644;BMP180;9970;-36.854;174.870;2022-10-16T07:39:50;101004.00;;;16.00
19644;BMP180;9970;-36.854;174.870;2022-10-16T07:42:30;101010.00;;;16.00
19644;BMP180;9970;-36.854;174.870;2022-10-16T07:45:03;101011.00;;;16.00
19644;BMP180;9970;-36.854;174.870;2022-10-16T07:47:37;101015.00;;;16.00
19644;BMP180;9970;-36.854;174.870;2022-10-16T07:50:10;101020.00;;;16.00
19644;BMP180;9970;-36.854;174.870;2022-10-16T07:52:43;101015.00;;;15.90
19644;BMP180;9970;-36.854;174.870;2022-10-16T07:55:17;101010.00;;;15.90
19644;BMP180;9970;-36.854;174.870;2022-10-16T07:57:50;101021.00;;;15.90
19644;BMP180;9970;-36.854;174.870;2022-10-16T08:00:23;101036.00;;;15.90
19644;BMP180;9970;-36.854;174.870;2022-10-16T08:02:57;101034.00;;;15.80
19644;BMP180;9970;-36.854;174.870;2022-10-16T08:05:33;101047.00;;;15.80
19644;BMP180;9970;-36.854;174.870;2022-10-16T08:08:06;101055.00;;;15.80
19644;BMP180;9970;-36.854;174.870;2022-10-16T08:10:39;101053.00;;;15.80
19644;BMP180;9970;-36.854;174.870;2022-10-16T08:13:13;101056.00;;;15.80
19644;BMP180;9970;-36.854;174.870;2022-10-16T08:15:47;101058.00;;;15.80
19644;BMP180;9970;-36.854;174.870;2022-10-16T08:18:21;101064.00;;;15.80
19644;BMP180;9970;-36.854;174.870;2022-10-16T08:20:58;101061.00;;;15.80
19644;BMP180;9970;-36.854;174.870;2022-10-16T08:23:33;101069.00;;;15.70
19644;BMP180;9970;-36.854;174.870;2022-10-16T08:26:08;101072.00;;;15.70
19644;BMP180;9970;-36.854;174.870;2022-10-16T08:28:41;101078.00;;;15.70
19644;BMP180;9970;-36.854;174.870;2022-10-16T08:31:15;101082.00;;;15.70
19644;BMP180;9970;-36.854;174.870;2022-10-16T08:33:49;101071.00;;;15.70
19644;BMP180;9970;-36.854;174.870;2022-10-16T08:36:28;101077.00;;;15.60
19644;BMP180;9970;-36.854;174.870;2022-10-16T08:39:01;101075.00;;;15.60
19644;BMP180;9970;-36.854;174.870;2022-10-16T08:44:39;101082.00;;;15.60
19644;BMP180;9970;-36.854;174.870;2022-10-16T08:47:20;101080.00;;;15.50
19644;BMP180;9970;-36.854;174.870;2022-10-16T08:50:00;101084.00;;;15.50
19644;BMP180;9970;-36.854;174.870;2022-10-16T08:52:35;101092.00;;;15.50
19644;BMP180;9970;-36.854;174.870;2022-10-16T08:58:18;101094.00;;;15.50
19644;BMP180;9970;-36.854;174.870;2022-10-16T09:00:57;101100.00;;;15.40
19644;BMP180;9970;-36.854;174.870;2022-10-16T09:03:50;101099.00;;;15.40
19644;BMP180;9970;-36.854;174.870;2022-10-16T09:07:01;101095.00;;;15.40
19644;BMP180;9970;-36.854;174.870;2022-10-16T09:12:21;101094.00;;;15.40
19644;BMP180;9970;-36.854;174.870;2022-10-16T09:14:46;101101.00;;;15.30
19644;BMP180;9970;-36.854;174.870;2022-10-16T09:20:24;101102.00;;;15.30
19644;BMP180;9970;-36.854;174.870;2022-10-16T09:25:40;101116.00;;;15.30
19644;BMP180;9970;-36.854;174.870;2022-10-16T09:28:14;101107.00;;;15.30
19644;BMP180;9970;-36.854;174.870;2022-10-16T09:30:47;101109.00;;;15.30
19644;BMP180;9970;-36.854;174.870;2022-10-16T09:33:23;101109.00;;;15.30
19644;BMP180;9970;-36.854;174.870;2022-10-16T09:35:57;101109.00;;;15.30
19644;BMP180;9970;-36.854;174.870;2022-10-16T09:38:31;101115.00;;;15.30
19644;BMP180;9970;-36.854;174.870;2022-10-16T09:41:18;101110.00;;;15.30
19644;BMP180;9970;-36.854;174.870;2022-10-16T09:43:56;101121.00;;;15.30
19644;BMP180;9970;-36.854;174.870;2022-10-16T09:46:46;101114.00;;;15.30
19644;BMP180;9970;-36.854;174.870;2022-10-16T09:49:24;101111.00;;;15.30
19644;BMP180;9970;-36.854;174.870;2022-10-16T09:52:14;101108.00;;;15.30
19644;BMP180;9970;-36.854;174.870;2022-10-16T09:55:01;101111.00;;;15.30
19644;BMP180;9970;-36.854;174.870;2022-10-16T09:57:35;101115.00;;;15.30
19644;BMP180;9970;-36.854;174.870;2022-10-16T10:00:09;101111.00;;;15.30
19644;BMP180;9970;-36.854;174.870;2022-10-16T10:02:42;101114.00;;;15.30
19644;BMP180;9970;-36.854;174.870;2022-10-16T10:05:23;101120.00;;;15.30
19644;BMP180;9970;-36.854;174.870;2022-10-16T10:08:01;101114.00;;;15.30
19644;BMP180;9970;-36.854;174.870;2022-10-16T10:10:40;101126.00;;;15.30
19644;BMP180;9970;-36.854;174.870;2022-10-16T10:13:24;101117.00;;;15.30
19644;BMP180;9970;-36.854;174.870;2022-10-16T10:15:52;101117.00;;;15.30
19644;BMP180;9970;-36.854;174.870;2022-10-16T10:18:25;101120.00;;;15.30
19644;BMP180;9970;-36.854;174.870;2022-10-16T10:21:02;101122.00;;;15.30
19644;BMP180;9970;-36.854;174.870;2022-10-16T10:23:36;101119.00;;;15.30
19644;BMP180;9970;-36.854;174.870;2022-10-16T10:31:34;101127.00;;;15.30
19644;BMP180;9970;-36.854;174.870;2022-10-16T10:39:55;101129.00;;;15.30
19644;BMP180;9970;-36.854;174.870;2022-10-16T10:48:17;101137.00;;;15.30
19644;BMP180;9970;-36.854;174.870;2022-10-16T10:50:54;101137.00;;;15.20
19644;BMP180;9970;-36.854;174.870;2022-10-16T10:53:34;101135.00;;;15.20
19644;BMP180;9970;-36.854;174.870;2022-10-16T11:01:42;101139.00;;;15.20
19644;BMP180;9970;-36.854;174.870;2022-10-16T11:04:44;101143.00;;;15.20
19644;BMP180;9970;-36.854;174.870;2022-10-16T11:07:24;101142.00;;;15.20
19644;BMP180;9970;-36.854;174.870;2022-10-16T11:10:12;101141.00;;;15.20
19644;BMP180;9970;-36.854;174.870;2022-10-16T11:12:42;101140.00;;;15.10
19644;BMP180;9970;-36.854;174.870;2022-10-16T11:15:19;101131.00;;;15.10
19644;BMP180;9970;-36.854;174.870;2022-10-16T11:18:15;101138.00;;;15.10
19644;BMP180;9970;-36.854;174.870;2022-10-16T11:23:41;101138.00;;;15.10
19644;BMP180;9970;-36.854;174.870;2022-10-16T11:26:19;101136.00;;;15.10
19644;BMP180;9970;-36.854;174.870;2022-10-16T11:28:53;101128.00;;;15.00
19644;BMP180;9970;-36.854;174.870;2022-10-16T11:31:37;101137.00;;;15.10
19644;BMP180;9970;-36.854;174.870;2022-10-16T11:37:12;101144.00;;;15.00
19644;BMP180;9970;-36.854;174.870;2022-10-16T11:39:46;101144.00;;;15.00
19644;BMP180;9970;-36.854;174.870;2022-10-16T11:42:26;101148.00;;;15.00
19644;BMP180;9970;-36.854;174.870;2022-10-16T11:48:05;101151.00;;;15.00
19644;BMP180;9970;-36.854;174.870;2022-10-16T11:50:38;101143.00;;;15.00
19644;BMP180;9970;-36.854;174.870;2022-10-16T11:53:34;101136.00;;;15.00
19644;BMP180;9970;-36.854;174.870;2022-10-16T11:56:05;101138.00;;;15.00
19644;BMP180;9970;-36.854;174.870;2022-10-16T11:58:49;101142.00;;;15.00
19644;BMP180;9970;-36.854;174.870;2022-10-16T12:01:44;101134.00;;;15.00
19644;BMP180;9970;-36.854;174.870;2022-10-16T12:07:08;101140.00;;;15.00
19644;BMP180;9970;-36.854;174.870;2022-10-16T12:09:42;101145.00;;;15.00
19644;BMP180;9970;-36.854;174.870;2022-10-16T12:17:57;101145.00;;;15.00
19644;BMP180;9970;-36.854;174.870;2022-10-16T12:20:34;101145.00;;;15.00
19644;BMP180;9970;-36.854;174.870;2022-10-16T12:23:16;101137.00;;;15.00
19644;BMP180;9970;-36.854;174.870;2022-10-16T12:25:43;101147.00;;;15.00
19644;BMP180;9970;-36.854;174.870;2022-10-16T12:28:32;101135.00;;;15.00
19644;BMP180;9970;-36.854;174.870;2022-10-16T12:31:06;101133.00;;;15.00
19644;BMP180;9970;-36.854;174.870;2022-10-16T12:34:01;101138.00;;;15.00
19644;BMP180;9970;-36.854;174.870;2022-10-16T12:36:35;101135.00;;;15.00
19644;BMP180;9970;-36.854;174.870;2022-10-16T12:39:16;101132.00;;;15.00
19644;BMP180;9970;-36.854;174.870;2022-10-16T12:41:44;101130.00;;;15.00
19644;BMP180;9970;-36.854;174.870;2022-10-16T12:44:24;101131.00;;;15.00
19644;BMP180;9970;-36.854;174.870;2022-10-16T12:47:01;101133.00;;;14.90
19644;BMP180;9970;-36.854;174.870;2022-10-16T12:49:36;101135.00;;;14.90
19644;BMP180;9970;-36.854;174.870;2022-10-16T12:52:31;101128.00;;;14.90
19644;BMP180;9970;-36.854;174.870;2022-10-16T12:55:09;101127.00;;;14.90
19644;BMP180;9970;-36.854;174.870;2022-10-16T13:11:58;101129.00;;;14.90
19644;BMP180;9970;-36.854;174.870;2022-10-16T13:17:29;101132.00;;;14.90
19644;BMP180;9970;-36.854;174.870;2022-10-16T13:20:05;101127.00;;;14.90
19644;BMP180;9970;-36.854;174.870;2022-10-16T13:22:43;101125.00;;;14.90
19644;BMP180;9970;-36.854;174.870;2022-10-16T13:25:29;101124.00;;;14.90
19644;BMP180;9970;-36.854;174.870;2022-10-16T13:28:06;101127.00;;;14.90
19644;BMP180;9970;-36.854;174.870;2022-10-16T13:31:09;101130.00;;;14.90
19644;BMP180;9970;-36.854;174.870;2022-10-16T13:37:02;101125.00;;;14.90
19644;BMP180;9970;-36.854;174.870;2022-10-16T13:42:51;101133.00;;;14.90
19644;BMP180;9970;-36.854;174.870;2022-10-16T13:48:28;101122.00;;;14.90
19644;BMP180;9970;-36.854;174.870;2022-10-16T13:51:25;101121.00;;;14.90
19644;BMP180;9970;-36.854;174.870;2022-10-16T13:54:31;101121.00;;;14.90
19644;BMP180;9970;-36.854;174.870;2022-10-16T13:57:28;101126.00;;;14.90
19644;BMP180;9970;-36.854;174.870;2022-10-16T14:15:45;101116.00;;;14.90
19644;BMP180;9970;-36.854;174.870;2022-10-16T14:18:39;101111.00;;;14.90
19644;BMP180;9970;-36.854;174.870;2022-10-16T14:21:48;101125.00;;;14.90
19644;BMP180;9970;-36.854;174.870;2022-10-16T14:34:03;101122.00;;;15.00
19644;BMP180;9970;-36.854;174.870;2022-10-16T14:40:31;101113.00;;;15.00
19644;BMP180;9970;-36.854;174.870;2022-10-16T14:43:50;101112.00;;;15.00
19644;BMP180;9970;-36.854;174.870;2022-10-16T14:46:35;101117.00;;;15.00
19644;BMP180;9970;-36.854;174.870;2022-10-16T14:57:43;101106.00;;;15.00
19644;BMP180;9970;-36.854;174.870;2022-10-16T15:00:41;101120.00;;;15.10
19644;BMP180;9970;-36.854;174.870;2022-10-16T15:03:34;101101.00;;;15.10
19644;BMP180;9970;-36.854;174.870;2022-10-16T15:09:10;101111.00;;;15.10
19644;BMP180;9970;-36.854;174.870;2022-10-16T15:11:44;101116.00;;;15.10
19644;BMP180;9970;-36.854;174.870;2022-10-16T15:14:27;101114.00;;;15.10
19644;BMP180;9970;-36.854;174.870;2022-10-16T15:17:46;101124.00;;;15.20
19644;BMP180;9970;-36.854;174.870;2022-10-16T15:20:11;101112.00;;;15.10
19644;BMP180;9970;-36.854;174.870;2022-10-16T15:22:57;101110.00;;;15.10
19644;BMP180;9970;-36.854;174.870;2022-10-16T15:25:46;101119.00;;;15.20
19644;BMP180;9970;-36.854;174.870;2022-10-16T15:31:45;101119.00;;;15.10
19644;BMP180;9970;-36.854;174.870;2022-10-16T15:40:36;101126.00;;;15.20
19644;BMP180;9970;-36.854;174.870;2022-10-16T15:43:11;101116.00;;;15.20
19644;BMP180;9970;-36.854;174.870;2022-10-16T15:49:37;101133.00;;;15.20
19644;BMP180;9970;-36.854;174.870;2022-10-16T15:59:15;101126.00;;;15.20
19644;BMP180;9970;-36.854;174.870;2022-10-16T16:05:27;101133.00;;;15.20
19644;BMP180;9970;-36.854;174.870;2022-10-16T16:08:46;101129.00;;;15.20
19644;BMP180;9970;-36.854;174.870;2022-10-16T16:15:20;101134.00;;;15.20
19644;BMP180;9970;-36.854;174.870;2022-10-16T16:18:39;101124.00;;;15.20
19644;BMP180;9970;-36.854;174.870;2022-10-16T16:25:26;101137.00;;;15.20
19644;BMP180;9970;-36.854;174.870;2022-10-16T16:34:55;101133.00;;;15.20
19644;BMP180;9970;-36.854;174.870;2022-10-16T16:44:16;101134.00;;;15.20
19644;BMP180;9970;-36.854;174.870;2022-10-16T16:51:07;101148.00;;;15.30
19644;BMP180;9970;-36.854;174.870;2022-10-16T16:54:09;101142.00;;;15.30
19644;BMP180;9970;-36.854;174.870;2022-10-16T16:59:54;101152.00;;;15.30
19644;BMP180;9970;-36.854;174.870;2022-10-16T17:02:54;101148.00;;;15.30
19644;BMP180;9970;-36.854;174.870;2022-10-16T17:12:33;101147.00;;;15.30
19644;BMP180;9970;-36.854;174.870;2022-10-16T17:19:18;101155.00;;;15.30
19644;BMP180;9970;-36.854;174.870;2022-10-16T17:22:43;101145.00;;;15.30
19644;BMP180;9970;-36.854;174.870;2022-10-16T17:25:44;101148.00;;;15.30
19644;BMP180;9970;-36.854;174.870;2022-10-16T17:35:35;101161.00;;;15.30
19644;BMP180;9970;-36.854;174.870;2022-10-16T17:51:47;101168.00;;;15.30
19644;BMP180;9970;-36.854;174.870;2022-10-16T17:54:34;101174.00;;;15.30
19644;BMP180;9970;-36.854;174.870;2022-10-16T18:00:32;101169.00;;;15.30
19644;BMP180;9970;-36.854;174.870;2022-10-16T18:15:46;101191.00;;;15.30
19644;BMP180;9970;-36.854;174.870;2022-10-16T18:21:50;101194.00;;;15.40
19644;BMP180;9970;-36.854;174.870;2022-10-16T18:25:19;101197.00;;;15.40
19644;BMP180;9970;-36.854;174.870;2022-10-16T18:34:49;101210.00;;;15.40
19644;BMP180;9970;-36.854;174.870;2022-10-16T18:38:00;101211.00;;;15.50
19644;BMP180;9970;-36.854;174.870;2022-10-16T18:40:52;101218.00;;;15.50
19644;BMP180;9970;-36.854;174.870;2022-10-16T18:43:31;101221.00;;;15.50
19644;BMP180;9970;-36.854;174.870;2022-10-16T18:46:15;101215.00;;;15.60
19644;BMP180;9970;-36.854;174.870;2022-10-16T18:48:42;101222.00;;;15.60